Time;durP1;ratioP1;P1;durP2;ratioP2;P2;SDS_P1;SDS_P2;PMS_P1;PMS_P2;Temp;Humidity;BMP_temperature;BMP_pressure;BME280_temperature;BME280_humidity;BME280_pressure;Samples;Min_cycle;Max_cycle;Signal;HPM_P1;HPM_P2
2023/12/11 00:01:52;;;;;;;37.97;4.90;;;9.60;99.90;;;;;;5074617;27;20032;-79
2023/12/11 00:04:19;;;;;;;34.40;5.35;;;9.50;99.90;;;;;;5092372;27;20031;-76
2023/12/11 00:06:45;;;;;;;43.08;6.55;;;9.40;99.90;;;;;;5122098;27;20043;-91
2023/12/11 00:09:13;;;;;;;40.22;6.43;;;9.30;99.90;;;;;;5088013;27;20020;-85
2023/12/11 00:11:39;;;;;;;50.47;7.22;;;9.30;99.90;;;;;;5111105;27;20473;-81
2023/12/11 00:14:06;;;;;;;43.28;5.82;;;9.30;99.90;;;;;;5088209;28;20024;-89
2023/12/11 00:16:32;;;;;;;41.05;6.30;;;9.20;99.90;;;;;;5076713;27;20027;-86
2023/12/11 00:18:59;;;;;;;43.97;4.88;;;9.10;99.90;;;;;;5091709;27;20078;-89
2023/12/11 00:21:25;;;;;;;40.70;5.72;;;9.10;99.90;;;;;;5080085;27;20019;-87
2023/12/11 00:23:53;;;;;;;42.00;6.13;;;9.10;99.90;;;;;;5056315;27;20351;-86
2023/12/11 00:26:19;;;;;;;39.60;5.50;;;9.10;99.90;;;;;;5070362;27;20043;-90
2023/12/11 00:28:47;;;;;;;45.85;6.03;;;9.20;99.90;;;;;;5077283;27;20057;-84
2023/12/11 00:31:13;;;;;;;42.15;7.60;;;9.20;99.90;;;;;;5106340;27;20031;-89
2023/12/11 00:33:40;;;;;;;35.63;5.72;;;9.20;99.90;;;;;;5083241;27;20043;-86
2023/12/11 00:36:07;;;;;;;41.30;6.55;;;9.20;99.90;;;;;;5084206;27;20428;-85
2023/12/11 00:38:34;;;;;;;32.70;4.93;;;9.20;99.90;;;;;;5101478;27;20031;-83
2023/12/11 00:41:01;;;;;;;35.17;4.47;;;9.20;99.90;;;;;;5079170;28;20027;-88
2023/12/11 00:43:28;;;;;;;39.75;5.95;;;9.30;99.90;;;;;;5075980;27;20115;-87
2023/12/11 00:45:54;;;;;;;48.78;7.75;;;9.30;99.90;;;;;;5085263;27;20039;-88
2023/12/11 00:48:21;;;;;;;38.88;5.30;;;9.30;99.90;;;;;;5066750;27;20046;-86
2023/12/11 00:50:48;;;;;;;41.78;6.32;;;9.30;99.90;;;;;;5104488;27;20043;-82
2023/12/11 00:53:14;;;;;;;50.45;6.75;;;9.30;99.90;;;;;;5112411;27;20035;-86
2023/12/11 00:55:40;;;;;;;42.50;5.80;;;9.20;99.90;;;;;;5092119;27;20031;-85
2023/12/11 00:58:07;;;;;;;36.38;5.25;;;9.10;99.90;;;;;;5088050;27;20028;-90
2023/12/11 01:00:33;;;;;;;44.72;5.78;;;9.10;99.90;;;;;;5125860;27;20043;-85
2023/12/11 01:03:00;;;;;;;35.35;5.18;;;9.10;99.90;;;;;;5110393;27;20043;-89
2023/12/11 01:05:27;;;;;;;39.17;5.82;;;9.10;99.90;;;;;;5087405;27;20032;-79
2023/12/11 01:07:53;;;;;;;33.15;4.82;;;9.10;99.90;;;;;;5110309;27;20051;-86
2023/12/11 01:10:20;;;;;;;33.97;5.45;;;9.10;99.90;;;;;;5090776;27;20035;-82
2023/12/11 01:12:46;;;;;;;40.45;5.30;;;9.10;99.90;;;;;;5089561;27;20032;-90
2023/12/11 01:15:12;;;;;;;43.05;6.18;;;9.10;99.90;;;;;;5091185;27;20039;-84
2023/12/11 01:17:39;;;;;;;42.47;6.50;;;9.10;99.90;;;;;;5091105;27;20505;-88
2023/12/11 01:20:06;;;;;;;46.28;6.80;;;9.10;99.90;;;;;;5107931;27;20031;-87
2023/12/11 01:22:32;;;;;;;38.13;5.93;;;9.10;99.90;;;;;;5071174;27;20463;-86
2023/12/11 01:25:02;;;;;;;34.88;5.70;;;9.10;99.90;;;;;;5095417;27;20039;-86
2023/12/11 01:27:28;;;;;;;38.78;5.22;;;9.20;99.90;;;;;;5103322;27;20438;-82
2023/12/11 01:29:55;;;;;;;50.05;6.93;;;9.20;99.90;;;;;;5084803;27;20039;-87
2023/12/11 01:32:21;;;;;;;59.80;6.80;;;9.30;99.90;;;;;;5087412;27;20050;-85
2023/12/11 01:34:48;;;;;;;41.55;6.10;;;9.30;99.90;;;;;;5051317;28;20058;-86
2023/12/11 01:37:14;;;;;;;47.72;6.25;;;9.30;99.90;;;;;;5083346;27;20024;-89
2023/12/11 01:39:40;;;;;;;46.55;6.32;;;9.40;99.90;;;;;;5066209;27;20035;-82
2023/12/11 01:42:07;;;;;;;47.38;7.72;;;9.40;99.90;;;;;;5058031;27;20399;-80
2023/12/11 01:44:35;;;;;;;36.08;4.90;;;9.40;99.90;;;;;;5121479;27;20085;-84
2023/12/11 01:47:02;;;;;;;34.20;4.88;;;9.40;99.90;;;;;;5073943;27;20039;-84
2023/12/11 01:49:29;;;;;;;35.90;5.18;;;9.30;99.90;;;;;;5089808;27;20027;-86
2023/12/11 01:51:55;;;;;;;44.03;5.50;;;9.30;99.90;;;;;;5074401;27;20040;-90
2023/12/11 01:54:22;;;;;;;41.58;5.32;;;9.30;99.90;;;;;;5073769;27;20399;-89
2023/12/11 01:56:49;;;;;;;35.88;5.10;;;9.30;99.90;;;;;;5055442;27;20023;-85
2023/12/11 01:59:15;;;;;;;34.17;5.03;;;9.30;99.90;;;;;;5095218;27;20046;-88
2023/12/11 02:01:43;;;;;;;55.55;6.65;;;9.40;99.90;;;;;;5071133;27;20470;-79
2023/12/11 02:04:10;;;;;;;37.13;5.45;;;9.30;99.90;;;;;;5108790;27;20031;-85
2023/12/11 02:06:36;;;;;;;33.95;5.47;;;9.30;99.90;;;;;;5088165;27;20035;-85
2023/12/11 02:09:03;;;;;;;33.00;4.90;;;9.40;99.90;;;;;;5092698;27;20040;-85
2023/12/11 02:11:30;;;;;;;39.13;5.10;;;9.40;99.90;;;;;;5086197;27;20036;-87
2023/12/11 02:13:56;;;;;;;33.63;4.93;;;9.40;99.90;;;;;;5093094;28;20027;-82
2023/12/11 02:16:23;;;;;;;39.55;5.40;;;9.40;99.90;;;;;;5091055;27;20112;-82
2023/12/11 02:18:49;;;;;;;38.00;6.20;;;9.40;99.90;;;;;;5060216;27;20034;-84
2023/12/11 02:21:16;;;;;;;35.40;4.70;;;9.40;99.90;;;;;;5105696;27;20028;-86
2023/12/11 02:24:18;;;;;;;38.88;5.63;;;9.40;99.90;;;;;;5078561;27;20030;-85
2023/12/11 02:26:44;;;;;;;36.55;6.10;;;9.40;99.90;;;;;;5031598;27;20051;-81
2023/12/11 02:29:11;;;;;;;45.08;6.18;;;9.40;99.90;;;;;;5079761;27;20038;-87
2023/12/11 02:31:38;;;;;;;40.72;5.05;;;9.40;99.90;;;;;;5087388;27;20031;-88
2023/12/11 02:34:04;;;;;;;37.25;5.32;;;9.40;99.90;;;;;;5057471;27;20414;-85
2023/12/11 02:36:30;;;;;;;36.45;5.40;;;9.40;99.90;;;;;;5102277;27;20036;-84
2023/12/11 02:38:57;;;;;;;37.70;5.88;;;9.40;99.90;;;;;;5078053;27;20031;-91
2023/12/11 02:41:24;;;;;;;44.55;5.47;;;9.40;99.90;;;;;;5082038;27;20634;-77
2023/12/11 02:43:51;;;;;;;47.53;5.10;;;9.40;99.90;;;;;;5101468;27;20039;-84
2023/12/11 02:46:17;;;;;;;36.67;5.85;;;9.40;99.90;;;;;;5075110;27;20038;-87
2023/12/11 02:48:44;;;;;;;35.97;4.65;;;9.40;99.90;;;;;;5072740;27;20442;-87
2023/12/11 02:51:10;;;;;;;41.97;5.70;;;9.40;99.90;;;;;;5100254;27;20035;-83
2023/12/11 02:53:37;;;;;;;41.75;5.72;;;9.40;99.90;;;;;;5117093;27;20040;-81
2023/12/11 02:56:03;;;;;;;38.72;5.38;;;9.40;99.90;;;;;;5102341;27;20031;-88
2023/12/11 02:58:30;;;;;;;34.13;5.03;;;9.40;99.90;;;;;;5051866;28;20042;-82
2023/12/11 03:00:56;;;;;;;36.00;5.38;;;9.50;99.90;;;;;;5086319;28;20042;-87
2023/12/11 03:03:22;;;;;;;36.20;6.50;;;9.40;99.90;;;;;;5070551;27;20027;-86
2023/12/11 03:05:50;;;;;;;40.55;5.30;;;9.50;99.90;;;;;;5090213;28;20043;-82
2023/12/11 03:08:16;;;;;;;39.80;6.50;;;9.40;99.90;;;;;;5077493;27;20485;-82
2023/12/11 03:10:43;;;;;;;40.50;5.63;;;9.50;99.90;;;;;;5086934;27;20042;-80
2023/12/11 03:13:09;;;;;;;40.95;5.20;;;9.40;99.90;;;;;;5078140;27;20042;-87
2023/12/11 03:15:36;;;;;;;46.33;6.47;;;9.40;99.90;;;;;;5072433;27;20028;-85
2023/12/11 03:18:02;;;;;;;32.90;5.03;;;9.40;99.90;;;;;;5085459;28;20038;-86
2023/12/11 03:20:29;;;;;;;28.23;4.70;;;9.40;99.90;;;;;;5123089;27;20442;-87
2023/12/11 03:22:55;;;;;;;40.75;5.22;;;9.40;99.90;;;;;;5076753;28;20039;-79
2023/12/11 03:25:22;;;;;;;27.42;3.28;;;9.40;99.90;;;;;;5089766;27;20036;-88
2023/12/11 03:27:48;;;;;;;31.55;4.38;;;9.40;99.90;;;;;;5088960;28;20048;-87
2023/12/11 03:30:15;;;;;;;22.70;2.90;;;9.40;99.90;;;;;;5071001;28;20040;-85
2023/12/11 03:32:42;;;;;;;30.92;4.07;;;9.40;99.90;;;;;;5060956;28;20487;-83
2023/12/11 03:35:08;;;;;;;31.35;4.47;;;9.30;99.90;;;;;;5102271;28;20027;-83
2023/12/11 03:37:35;;;;;;;24.80;3.50;;;9.30;99.90;;;;;;5099825;28;20032;-86
2023/12/11 03:40:02;;;;;;;19.80;3.05;;;9.20;99.90;;;;;;5085798;28;20406;-84
2023/12/11 03:42:28;;;;;;;29.42;3.33;;;9.20;99.90;;;;;;5100036;28;20043;-83
2023/12/11 03:44:55;;;;;;;32.15;4.97;;;9.20;99.90;;;;;;5101027;28;20047;-84
2023/12/11 03:47:21;;;;;;;28.48;4.82;;;9.20;99.90;;;;;;5070458;28;20039;-86
2023/12/11 03:49:48;;;;;;;32.50;4.13;;;9.20;99.90;;;;;;5078705;28;20050;-82
2023/12/11 03:52:14;;;;;;;37.92;5.43;;;9.10;99.90;;;;;;5072841;28;20042;-78
2023/12/11 03:54:41;;;;;;;36.55;4.75;;;9.10;99.90;;;;;;5071817;28;20390;-88
2023/12/11 03:57:07;;;;;;;27.20;3.42;;;9.10;99.90;;;;;;5074635;28;20050;-88
2023/12/11 03:59:34;;;;;;;35.92;5.10;;;9.10;99.90;;;;;;5082320;28;20036;-87
2023/12/11 04:02:00;;;;;;;30.50;4.50;;;9.10;99.90;;;;;;5084545;28;20466;-91
2023/12/11 04:04:27;;;;;;;28.75;4.68;;;9.10;99.90;;;;;;5073078;28;20028;-77
2023/12/11 04:06:53;;;;;;;40.75;5.05;;;9.10;99.90;;;;;;5070759;28;20851;-80
2023/12/11 04:09:19;;;;;;;26.67;3.50;;;9.10;99.90;;;;;;5071072;28;20035;-83
2023/12/11 04:11:46;;;;;;;34.42;4.75;;;9.10;99.90;;;;;;5083813;28;20032;-85
2023/12/11 04:14:12;;;;;;;26.60;3.50;;;9.00;99.90;;;;;;5051344;28;20054;-84
2023/12/11 04:16:42;;;;;;;31.65;4.32;;;9.10;99.90;;;;;;5057422;28;20050;-85
2023/12/11 04:19:11;;;;;;;22.33;3.35;;;9.10;99.90;;;;;;5103252;28;20028;-91
2023/12/11 04:21:37;;;;;;;26.83;3.92;;;9.10;99.90;;;;;;5092962;28;20031;-86
2023/12/11 04:24:04;;;;;;;24.50;4.13;;;9.10;99.90;;;;;;5079568;28;20040;-90
2023/12/11 04:26:31;;;;;;;23.33;4.07;;;9.10;99.90;;;;;;5075745;27;20168;-84
2023/12/11 04:28:57;;;;;;;31.55;4.53;;;9.10;99.90;;;;;;5076994;27;20039;-82
2023/12/11 04:31:24;;;;;;;22.58;3.95;;;9.10;99.90;;;;;;5091713;28;20034;-87
2023/12/11 04:33:50;;;;;;;39.70;5.55;;;9.20;99.90;;;;;;5076634;27;20061;-84
2023/12/11 04:36:17;;;;;;;30.83;5.43;;;9.20;99.90;;;;;;5093677;27;20046;-86
2023/12/11 04:38:43;;;;;;;45.50;6.55;;;9.20;99.90;;;;;;5107149;27;20364;-86
2023/12/11 04:41:09;;;;;;;28.27;4.85;;;9.20;99.90;;;;;;5085538;27;20036;-90
2023/12/11 04:43:36;;;;;;;27.70;4.80;;;9.30;99.90;;;;;;5104417;27;20424;-83
2023/12/11 04:46:02;;;;;;;32.78;5.47;;;9.30;99.90;;;;;;5052036;27;20519;-81
2023/12/11 04:48:29;;;;;;;45.10;6.68;;;9.20;99.90;;;;;;5073890;28;20047;-86
2023/12/11 04:50:55;;;;;;;50.92;7.40;;;9.30;99.90;;;;;;5071706;27;20039;-87
2023/12/11 04:53:22;;;;;;;43.03;5.85;;;9.30;99.90;;;;;;5101808;27;20511;-86
2023/12/11 04:55:48;;;;;;;40.67;5.53;;;9.30;99.90;;;;;;5084017;28;21258;-84
2023/12/11 04:58:14;;;;;;;32.75;5.20;;;9.30;99.90;;;;;;5056426;27;20035;-81
2023/12/11 05:00:41;;;;;;;38.78;5.72;;;9.30;99.90;;;;;;5085162;27;20437;-86
2023/12/11 05:03:07;;;;;;;30.05;4.95;;;9.30;99.90;;;;;;5087450;27;20494;-89
2023/12/11 05:05:35;;;;;;;47.60;6.97;;;9.30;99.90;;;;;;5087281;27;20792;-81
2023/12/11 05:08:02;;;;;;;43.78;5.57;;;9.30;99.90;;;;;;5059839;28;20039;-82
2023/12/11 05:10:29;;;;;;;37.75;5.18;;;9.30;99.90;;;;;;5084155;27;20490;-82
2023/12/11 05:12:55;;;;;;;33.67;5.07;;;9.30;99.90;;;;;;5055751;27;20032;-83
2023/12/11 05:15:21;;;;;;;35.90;3.92;;;9.30;99.90;;;;;;5100876;27;20040;-90
2023/12/11 05:17:48;;;;;;;39.85;5.50;;;9.30;99.90;;;;;;5088476;27;20044;-86
2023/12/11 05:20:16;;;;;;;34.67;4.65;;;9.30;99.90;;;;;;5068160;27;20031;-83
2023/12/11 05:22:42;;;;;;;46.05;5.35;;;9.30;99.90;;;;;;5086840;28;20569;-87
2023/12/11 05:25:09;;;;;;;34.28;4.53;;;9.30;99.90;;;;;;5085431;28;20038;-89
2023/12/11 05:27:35;;;;;;;50.28;5.25;;;9.30;99.90;;;;;;5086473;27;20042;-80
2023/12/11 05:30:02;;;;;;;33.97;4.50;;;9.30;99.90;;;;;;5089236;28;20042;-83
2023/12/11 05:32:30;;;;;;;45.05;5.55;;;9.30;99.90;;;;;;5071299;27;20028;-79
2023/12/11 05:34:56;;;;;;;25.90;3.67;;;9.30;99.90;;;;;;5083338;27;20043;-81
2023/12/11 05:37:22;;;;;;;41.80;5.13;;;9.30;99.90;;;;;;5056534;27;20039;-88
2023/12/11 05:39:49;;;;;;;46.00;5.82;;;9.30;99.90;;;;;;5084470;27;20452;-85
2023/12/11 05:42:15;;;;;;;46.22;5.10;;;9.30;99.90;;;;;;5085022;28;20040;-84
2023/12/11 05:44:41;;;;;;;60.03;6.68;;;9.30;99.90;;;;;;5067032;28;20521;-85
2023/12/11 05:47:08;;;;;;;39.00;4.82;;;9.40;99.90;;;;;;5082241;28;20039;-88
2023/12/11 05:49:34;;;;;;;39.50;3.95;;;9.30;99.90;;;;;;5102094;27;20756;-82
2023/12/11 05:52:01;;;;;;;52.78;5.82;;;9.30;99.90;;;;;;5071627;27;20032;-86
2023/12/11 05:54:27;;;;;;;41.08;5.57;;;9.30;99.90;;;;;;5100240;27;20028;-90
2023/12/11 05:56:53;;;;;;;31.73;4.65;;;9.30;99.90;;;;;;5067051;27;20051;-89
2023/12/11 05:59:20;;;;;;;33.50;4.55;;;9.30;99.90;;;;;;5070543;28;20528;-83
2023/12/11 06:01:47;;;;;;;33.10;4.75;;;9.30;99.90;;;;;;5067565;27;20046;-82
2023/12/11 06:04:14;;;;;;;44.72;7.00;;;9.30;99.90;;;;;;5072598;27;20054;-85
2023/12/11 06:06:40;;;;;;;43.88;5.65;;;9.30;99.90;;;;;;5101998;27;20036;-85
2023/12/11 06:09:06;;;;;;;42.25;5.85;;;9.30;99.90;;;;;;5077178;27;20036;-85
2023/12/11 06:11:33;;;;;;;35.17;4.90;;;9.30;99.90;;;;;;5053285;27;20028;-91
2023/12/11 06:13:59;;;;;;;40.90;6.20;;;9.30;99.90;;;;;;5112176;27;20023;-90
2023/12/11 06:16:25;;;;;;;38.05;5.88;;;9.30;99.90;;;;;;5098656;27;20032;-84
2023/12/11 06:18:52;;;;;;;37.67;5.28;;;9.30;99.90;;;;;;5076144;28;20042;-84
2023/12/11 06:21:21;;;;;;;41.80;5.15;;;9.30;99.90;;;;;;5100323;27;21236;-81
2023/12/11 06:23:48;;;;;;;36.65;5.18;;;9.30;99.90;;;;;;5071532;27;20050;-80
2023/12/11 06:26:31;;;;;;;44.55;5.88;;;9.30;99.90;;;;;;5065328;27;20032;-82
2023/12/11 06:29:01;;;;;;;36.10;4.03;;;9.30;99.90;;;;;;5065444;28;20130;-86
2023/12/11 06:31:28;;;;;;;33.47;5.20;;;9.30;99.90;;;;;;5077523;28;20039;-90
2023/12/11 06:33:55;;;;;;;48.80;6.55;;;9.30;99.90;;;;;;5064075;27;20042;-86
2023/12/11 06:36:23;;;;;;;37.65;4.75;;;9.30;99.90;;;;;;5083112;27;20387;-85
2023/12/11 06:38:50;;;;;;;44.17;5.72;;;9.30;99.90;;;;;;5055419;27;20437;-83
2023/12/11 06:41:17;;;;;;;35.40;4.63;;;9.30;99.90;;;;;;5065831;28;20036;-81
2023/12/11 06:43:48;;;;;;;43.88;6.47;;;9.30;99.90;;;;;;5113437;27;20043;-80
2023/12/11 06:46:15;;;;;;;41.90;4.43;;;9.30;99.90;;;;;;5076221;27;20047;-87
2023/12/11 06:48:41;;;;;;;38.67;4.40;;;9.20;99.90;;;;;;5066896;27;20040;-82
2023/12/11 06:51:08;;;;;;;40.97;4.65;;;9.30;99.90;;;;;;5073117;27;20501;-85
2023/12/11 06:53:34;;;;;;;33.58;4.20;;;9.30;99.90;;;;;;5055289;28;20125;-87
2023/12/11 06:56:01;;;;;;;30.55;5.13;;;9.20;99.90;;;;;;5082063;28;20496;-86
2023/12/11 06:58:27;;;;;;;36.55;5.60;;;9.20;99.90;;;;;;5078326;27;20042;-80
2023/12/11 07:00:54;;;;;;;34.72;5.28;;;9.20;99.90;;;;;;5068622;27;20118;-83
2023/12/11 07:03:20;;;;;;;40.58;4.72;;;9.20;99.90;;;;;;5078136;28;20036;-89
2023/12/11 07:05:47;;;;;;;38.53;5.60;;;9.20;99.90;;;;;;5068765;28;20035;-88
2023/12/11 07:08:13;;;;;;;34.92;3.88;;;9.20;99.90;;;;;;5077838;28;20044;-88
2023/12/11 07:10:40;;;;;;;31.67;4.80;;;9.20;99.90;;;;;;5080228;28;20032;-83
2023/12/11 07:13:06;;;;;;;36.08;5.15;;;9.20;99.90;;;;;;5048975;28;20036;-88
2023/12/11 07:15:33;;;;;;;40.92;4.47;;;9.20;99.90;;;;;;5057238;28;20028;-78
2023/12/11 07:17:59;;;;;;;43.72;4.30;;;9.20;99.90;;;;;;5080669;28;20031;-93
2023/12/11 07:20:27;;;;;;;30.45;3.88;;;9.20;99.90;;;;;;5061313;28;20024;-86
2023/12/11 07:22:55;;;;;;;32.33;4.10;;;9.20;99.90;;;;;;5095431;28;20032;-85
2023/12/11 07:25:21;;;;;;;32.42;4.03;;;9.20;99.90;;;;;;5076357;28;20046;-83
2023/12/11 07:27:48;;;;;;;31.70;3.58;;;9.20;99.90;;;;;;5113549;27;20052;-88
2023/12/11 07:30:14;;;;;;;46.80;5.95;;;9.20;99.90;;;;;;5094303;28;20035;-80
2023/12/11 07:32:41;;;;;;;36.28;4.82;;;9.20;99.90;;;;;;5076402;28;20402;-83
2023/12/11 07:35:11;;;;;;;36.55;4.10;;;9.20;99.90;;;;;;5066125;28;20065;-86
2023/12/11 07:37:41;;;;;;;42.50;8.18;;;9.20;99.90;;;;;;5096098;28;20050;-87
2023/12/11 07:40:08;;;;;;;39.85;5.25;;;9.20;99.90;;;;;;5078628;28;20028;-84
2023/12/11 07:42:34;;;;;;;38.78;4.72;;;9.20;99.90;;;;;;5077293;28;20039;-83
2023/12/11 07:45:05;;;;;;;33.60;4.38;;;9.20;99.90;;;;;;5080915;28;20024;-83
2023/12/11 07:47:32;;;;;;;27.48;3.33;;;9.20;99.90;;;;;;5078655;28;20039;-88
2023/12/11 07:50:00;;;;;;;29.23;4.43;;;9.10;99.90;;;;;;5064693;28;20034;-90
2023/12/11 07:52:30;;;;;;;28.08;3.63;;;9.10;99.90;;;;;;5068411;28;20402;-85
2023/12/11 07:54:58;;;;;;;21.30;3.45;;;9.10;99.90;;;;;;5083284;28;20036;-85
2023/12/11 07:57:26;;;;;;;26.05;4.07;;;9.10;99.90;;;;;;5092414;28;20493;-86
2023/12/11 07:59:53;;;;;;;35.53;5.22;;;9.10;99.90;;;;;;5074037;28;20036;-82
2023/12/11 08:02:19;;;;;;;29.33;4.05;;;9.10;99.90;;;;;;5081729;28;20116;-83
2023/12/11 08:04:46;;;;;;;19.08;2.80;;;9.10;99.90;;;;;;5082403;28;20048;-88
2023/12/11 08:07:16;;;;;;;21.05;2.90;;;9.10;99.90;;;;;;5081645;28;20039;-86
2023/12/11 08:09:43;;;;;;;28.10;3.53;;;9.10;99.90;;;;;;5096361;27;20028;-86
2023/12/11 08:12:09;;;;;;;22.83;2.78;;;9.10;99.90;;;;;;5083302;28;20042;-82
2023/12/11 08:14:37;;;;;;;26.27;2.63;;;9.10;99.90;;;;;;5064241;28;20034;-87
2023/12/11 08:17:04;;;;;;;20.15;3.10;;;9.10;99.90;;;;;;5084752;28;20023;-81
2023/12/11 08:19:33;;;;;;;20.80;2.67;;;9.10;99.90;;;;;;5087543;28;20482;-85
2023/12/11 08:21:59;;;;;;;15.95;2.47;;;9.10;99.90;;;;;;5096324;28;20522;-83
2023/12/11 08:24:26;;;;;;;21.60;2.92;;;9.10;99.90;;;;;;5079232;28;20048;-86
2023/12/11 08:26:53;;;;;;;16.27;2.63;;;9.10;99.90;;;;;;5088239;28;20074;-80
2023/12/11 08:29:23;;;;;;;22.02;2.47;;;9.10;99.90;;;;;;5082018;28;20047;-93
2023/12/11 08:31:50;;;;;;;19.02;3.08;;;9.10;99.90;;;;;;5058165;28;20032;-86
2023/12/11 08:34:18;;;;;;;20.40;2.67;;;9.10;99.90;;;;;;5076186;28;20490;-88
2023/12/11 08:36:45;;;;;;;15.05;2.15;;;9.10;99.90;;;;;;5059664;28;20042;-92
2023/12/11 08:39:11;;;;;;;13.27;2.40;;;9.10;99.90;;;;;;5075171;28;20039;-86
2023/12/11 08:41:38;;;;;;;15.82;2.85;;;9.10;99.90;;;;;;5086573;28;20039;-89
2023/12/11 08:44:04;;;;;;;12.43;2.22;;;9.10;99.90;;;;;;5067569;28;20039;-89
2023/12/11 08:46:31;;;;;;;17.58;3.58;;;9.10;99.90;;;;;;5096223;28;20028;-83
2023/12/11 08:48:58;;;;;;;19.05;3.03;;;9.10;99.90;;;;;;5076804;28;20036;-84
2023/12/11 08:51:25;;;;;;;20.88;3.38;;;9.10;99.90;;;;;;5080818;28;20043;-85
2023/12/11 08:53:51;;;;;;;19.27;3.35;;;9.10;99.90;;;;;;5091952;27;20024;-87
2023/12/11 08:56:20;;;;;;;15.20;2.97;;;9.20;99.90;;;;;;5079940;28;20040;-88
2023/12/11 08:58:46;;;;;;;28.55;4.78;;;9.20;99.90;;;;;;5074581;28;20051;-86
2023/12/11 09:01:13;;;;;;;18.90;3.03;;;9.20;99.90;;;;;;5096689;28;20027;-87
2023/12/11 09:03:39;;;;;;;14.23;3.05;;;9.20;99.90;;;;;;5103324;28;20047;-84
2023/12/11 09:06:06;;;;;;;21.95;3.42;;;9.30;99.90;;;;;;5056487;28;20036;-88
2023/12/11 09:08:32;;;;;;;16.92;3.35;;;9.20;99.90;;;;;;5051768;28;20024;-87
2023/12/11 09:10:58;;;;;;;17.38;2.80;;;9.30;99.90;;;;;;5077413;28;20043;-88
2023/12/11 09:13:26;;;;;;;12.38;2.50;;;9.30;99.90;;;;;;5095484;27;20482;-81
2023/12/11 09:15:52;;;;;;;12.95;2.50;;;9.30;99.90;;;;;;5077147;28;20442;-82
2023/12/11 09:18:19;;;;;;;12.43;2.63;;;9.30;99.90;;;;;;5070639;28;20491;-86
2023/12/11 09:20:45;;;;;;;15.52;2.47;;;9.30;99.90;;;;;;5071191;28;20039;-82
2023/12/11 09:23:12;;;;;;;12.55;2.38;;;9.30;99.90;;;;;;5079077;28;20050;-87
2023/12/11 09:25:38;;;;;;;11.57;1.58;;;9.30;99.90;;;;;;5062034;28;20031;-88
2023/12/11 09:28:04;;;;;;;9.43;1.73;;;9.30;99.90;;;;;;5068341;28;20036;-87
2023/12/11 09:30:31;;;;;;;13.50;2.58;;;9.30;99.90;;;;;;5079573;28;20035;-84
2023/12/11 09:32:57;;;;;;;23.20;2.58;;;9.30;99.90;;;;;;5070968;28;20046;-86
2023/12/11 09:35:24;;;;;;;10.40;2.08;;;9.30;99.90;;;;;;5063561;28;20024;-88
2023/12/11 09:37:51;;;;;;;16.80;2.30;;;9.30;99.90;;;;;;5090443;28;20039;-82
2023/12/11 09:40:18;;;;;;;10.07;1.58;;;9.30;99.90;;;;;;5073025;28;20039;-85
2023/12/11 09:42:46;;;;;;;16.17;2.15;;;9.30;99.90;;;;;;5076356;28;20040;-87
2023/12/11 09:45:17;;;;;;;13.93;2.25;;;9.30;99.90;;;;;;5078622;28;20049;-85
2023/12/11 09:47:47;;;;;;;10.95;1.63;;;9.30;99.90;;;;;;5072251;28;20043;-84
2023/12/11 09:50:14;;;;;;;13.25;2.15;;;9.30;99.90;;;;;;5081915;28;20521;-86
2023/12/11 09:52:41;;;;;;;12.52;2.22;;;9.30;99.90;;;;;;5071050;28;20059;-85
2023/12/11 09:55:09;;;;;;;16.58;2.00;;;9.30;99.90;;;;;;5053461;28;20908;-86
2023/12/11 09:57:38;;;;;;;13.02;2.03;;;9.30;99.90;;;;;;5073870;28;20455;-87
2023/12/11 10:00:05;;;;;;;10.32;2.65;;;9.30;99.90;;;;;;5107604;27;20040;-83
2023/12/11 10:02:32;;;;;;;15.18;2.05;;;9.40;99.90;;;;;;5070385;28;20035;-86
2023/12/11 10:05:10;;;;;;;17.50;2.53;;;9.40;99.90;;;;;;5053423;28;20059;-84
2023/12/11 10:07:41;;;;;;;14.50;2.40;;;9.40;99.90;;;;;;5076792;28;20039;-89
2023/12/11 10:10:26;;;;;;;11.57;2.65;;;9.40;99.90;;;;;;5085134;28;20032;-84
2023/12/11 10:12:56;;;;;;;11.95;2.53;;;9.50;99.90;;;;;;5079767;28;20028;-89
2023/12/11 10:15:28;;;;;;;15.18;2.30;;;9.50;99.90;;;;;;5092028;28;20483;-82
2023/12/11 10:18:06;;;;;;;12.85;2.33;;;9.50;99.90;;;;;;5102995;28;20470;-81
2023/12/11 10:20:34;;;;;;;14.85;2.20;;;9.50;99.90;;;;;;5083840;28;20031;-86
2023/12/11 10:23:15;;;;;;;11.65;2.80;;;9.50;99.90;;;;;;5068118;28;20561;-82
2023/12/11 10:25:43;;;;;;;13.77;2.28;;;9.50;99.90;;;;;;5061597;28;20494;-85
2023/12/11 10:28:12;;;;;;;13.68;2.80;;;9.50;99.90;;;;;;5075303;28;20055;-81
2023/12/11 10:30:53;;;;;;;14.70;2.75;;;9.50;99.90;;;;;;5070440;28;20638;-83
2023/12/11 10:33:21;;;;;;;21.65;2.60;;;9.40;99.90;;;;;;5089001;28;20032;-83
2023/12/11 10:35:48;;;;;;;21.02;3.33;;;9.40;99.90;;;;;;5080330;28;20424;-83
2023/12/11 10:38:23;;;;;;;16.35;2.60;;;9.40;99.90;;;;;;5083399;28;20093;-79
2023/12/11 10:40:51;;;;;;;18.48;3.38;;;9.30;99.90;;;;;;5082446;28;20032;-81
2023/12/11 10:43:17;;;;;;;19.95;3.58;;;9.30;99.90;;;;;;5074519;28;20039;-84
2023/12/11 10:45:45;;;;;;;21.33;4.15;;;9.20;99.90;;;;;;5097669;28;20407;-85
2023/12/11 10:48:11;;;;;;;22.63;3.70;;;9.20;99.90;;;;;;5052230;28;20512;-87
2023/12/11 10:50:38;;;;;;;18.92;3.78;;;9.20;99.90;;;;;;5074658;28;20066;-84
2023/12/11 10:53:06;;;;;;;24.10;4.78;;;9.20;99.90;;;;;;5069462;28;20044;-84
2023/12/11 10:55:33;;;;;;;14.43;4.22;;;9.20;99.90;;;;;;5091597;28;20451;-87
2023/12/11 10:58:05;;;;;;;21.15;5.03;;;9.30;99.90;;;;;;5079807;28;20036;-78
2023/12/11 11:00:32;;;;;;;17.15;4.63;;;9.30;99.90;;;;;;5052566;28;20046;-84
2023/12/11 11:03:00;;;;;;;19.20;4.88;;;9.30;99.90;;;;;;5077528;28;20039;-86
2023/12/11 11:05:29;;;;;;;17.98;3.83;;;9.30;99.90;;;;;;5082376;28;20039;-84
2023/12/11 11:08:11;;;;;;;17.30;4.20;;;9.40;99.90;;;;;;5055250;28;20051;-83
2023/12/11 11:10:45;;;;;;;26.48;4.22;;;9.40;99.90;;;;;;5084865;28;20039;-85
2023/12/11 11:13:31;;;;;;;16.88;4.50;;;9.50;99.90;;;;;;5100379;28;20027;-87
2023/12/11 11:15:57;;;;;;;21.35;3.90;;;9.50;99.90;;;;;;5074695;28;20043;-87
2023/12/11 11:18:24;;;;;;;17.42;3.83;;;9.50;99.90;;;;;;5064896;28;20043;-87
2023/12/11 11:21:11;;;;;;;22.80;3.13;;;9.50;99.90;;;;;;5075526;28;20059;-84
2023/12/11 11:23:47;;;;;;;15.48;3.00;;;9.50;99.90;;;;;;5090491;28;20497;-85
2023/12/11 11:26:43;;;;;;;27.17;3.83;;;9.50;99.90;;;;;;5071294;28;20035;-80
2023/12/11 11:29:42;;;;;;;20.33;3.13;;;9.40;99.90;;;;;;5073644;28;20052;-85
2023/12/11 11:32:09;;;;;;;20.10;3.25;;;9.40;99.90;;;;;;5065685;28;20490;-84
2023/12/11 11:34:44;;;;;;;18.77;3.88;;;9.40;99.90;;;;;;5077591;28;20044;-86
2023/12/11 11:37:20;;;;;;;19.02;2.70;;;9.30;99.90;;;;;;5064218;28;20386;-83
2023/12/11 11:39:58;;;;;;;14.45;3.10;;;9.30;99.90;;;;;;5082382;28;20031;-89
2023/12/11 11:42:33;;;;;;;15.05;2.65;;;9.30;99.90;;;;;;5054870;28;20055;-84
2023/12/11 11:45:11;;;;;;;16.38;2.85;;;9.30;99.90;;;;;;5086358;28;20038;-82
2023/12/11 11:47:37;;;;;;;11.98;2.42;;;9.30;99.90;;;;;;5095228;28;20035;-83
2023/12/11 11:50:05;;;;;;;16.75;3.13;;;9.40;99.90;;;;;;5086766;28;20043;-84
2023/12/11 11:52:35;;;;;;;17.38;2.80;;;9.40;99.90;;;;;;5074345;28;20039;-84
2023/12/11 11:55:28;;;;;;;13.98;2.20;;;9.50;99.90;;;;;;5093014;28;20044;-83
2023/12/11 11:57:55;;;;;;;20.73;2.95;;;9.50;99.90;;;;;;5079394;28;20310;-82
2023/12/11 12:00:25;;;;;;;17.10;2.75;;;9.60;99.90;;;;;;5081801;28;20040;-87
2023/12/11 12:03:00;;;;;;;13.40;1.88;;;9.60;99.90;;;;;;5076453;28;20062;-85
2023/12/11 12:05:26;;;;;;;14.77;2.42;;;9.60;99.90;;;;;;5050957;28;20032;-88
2023/12/11 12:07:54;;;;;;;12.73;2.08;;;9.70;99.90;;;;;;5082104;28;20042;-82
2023/12/11 12:10:20;;;;;;;8.82;1.33;;;9.70;99.90;;;;;;5091376;28;20024;-84
2023/12/11 12:12:49;;;;;;;14.27;1.65;;;9.60;99.90;;;;;;5083280;28;20043;-88
2023/12/11 12:15:16;;;;;;;7.60;1.23;;;9.50;99.90;;;;;;5076876;28;20040;-86
2023/12/11 12:17:45;;;;;;;11.15;1.88;;;9.40;99.90;;;;;;5088101;28;20538;-88
2023/12/11 12:20:18;;;;;;;19.90;1.70;;;9.40;99.90;;;;;;5081520;28;20044;-84
2023/12/11 12:22:58;;;;;;;12.98;2.58;;;9.40;99.90;;;;;;5076937;28;20039;-84
2023/12/11 12:25:28;;;;;;;9.35;1.60;;;9.40;99.90;;;;;;5075371;28;20035;-89
2023/12/11 12:28:06;;;;;;;11.00;1.40;;;9.50;99.90;;;;;;5081965;28;20039;-89
2023/12/11 12:30:34;;;;;;;11.50;1.52;;;9.50;99.90;;;;;;5096207;28;20036;-88
2023/12/11 12:33:03;;;;;;;12.85;1.50;;;9.50;99.90;;;;;;5075693;28;20043;-86
2023/12/11 12:35:32;;;;;;;7.80;1.10;;;9.50;99.90;;;;;;5067736;28;20036;-85
2023/12/11 12:38:01;;;;;;;12.65;1.50;;;9.50;99.90;;;;;;5088431;28;20043;-87
2023/12/11 12:40:27;;;;;;;11.43;1.95;;;9.50;99.90;;;;;;5076564;28;20375;-86
2023/12/11 12:42:53;;;;;;;16.75;1.58;;;9.40;99.90;;;;;;5072603;28;20466;-85
2023/12/11 12:45:33;;;;;;;10.13;1.40;;;9.30;99.90;;;;;;5077090;28;20036;-79
2023/12/11 12:48:00;;;;;;;14.68;1.67;;;9.30;99.90;;;;;;5094176;28;20044;-83
2023/12/11 12:50:27;;;;;;;12.77;1.70;;;9.20;99.90;;;;;;5095285;28;20043;-88
2023/12/11 12:53:13;;;;;;;13.45;2.10;;;9.20;99.90;;;;;;5097105;28;20370;-86